Time;durP1;ratioP1;P1;durP2;ratioP2;P2;SDS_P1;SDS_P2;PMS_P1;PMS_P2;Temp;Humidity;BMP_temperature;BMP_pressure;BME280_temperature;BME280_humidity;BME280_pressure;Samples;Min_cycle;Max_cycle;Signal;HPM_P1;HPM_P2
2022/07/10 00:01:06;;;;;;;6.10;1.27;;;14.60;99.90;;;;;;5070470;28;20102;-52
2022/07/10 00:03:32;;;;;;;8.18;1.48;;;14.50;99.90;;;;;;5069419;28;20063;-47
2022/07/10 00:05:58;;;;;;;7.88;1.30;;;14.50;99.90;;;;;;5069957;28;20519;-48
2022/07/10 00:08:23;;;;;;;7.22;1.42;;;14.50;99.90;;;;;;5051944;28;20445;-49
2022/07/10 00:10:49;;;;;;;6.32;1.35;;;14.40;99.90;;;;;;5070479;28;20066;-49
2022/07/10 00:13:15;;;;;;;7.38;1.23;;;14.40;99.90;;;;;;5070349;28;20398;-48
2022/07/10 00:15:40;;;;;;;6.07;1.02;;;14.40;99.90;;;;;;5072123;28;20029;-52
2022/07/10 00:18:07;;;;;;;6.75;1.48;;;14.30;99.90;;;;;;5073659;28;20068;-51
2022/07/10 00:20:34;;;;;;;7.60;1.60;;;14.10;99.90;;;;;;5073769;28;20462;-48
2022/07/10 00:22:59;;;;;;;5.40;1.15;;;14.20;99.90;;;;;;5073241;28;20496;-49
2022/07/10 00:25:25;;;;;;;5.93;1.48;;;14.10;99.90;;;;;;5073385;28;20059;-52
2022/07/10 00:27:51;;;;;;;5.07;1.00;;;14.10;99.90;;;;;;5073842;28;20045;-49
2022/07/10 00:30:17;;;;;;;6.60;1.02;;;14.10;99.90;;;;;;5073505;28;20036;-46
2022/07/10 00:32:42;;;;;;;6.10;1.27;;;14.00;99.90;;;;;;5074137;28;20036;-49
2022/07/10 00:35:08;;;;;;;5.90;1.25;;;13.90;99.90;;;;;;5073672;28;20483;-50
2022/07/10 00:37:34;;;;;;;6.13;1.35;;;13.90;99.90;;;;;;5074179;28;20753;-50
2022/07/10 00:40:00;;;;;;;5.65;1.20;;;13.90;99.90;;;;;;5073345;28;20119;-49
2022/07/10 00:42:27;;;;;;;6.85;1.38;;;13.90;99.90;;;;;;5073790;28;20218;-51
2022/07/10 00:44:52;;;;;;;5.00;1.20;;;13.80;99.90;;;;;;5073394;28;20047;-51
2022/07/10 00:47:19;;;;;;;6.82;1.30;;;13.90;99.90;;;;;;5073545;28;20048;-50
2022/07/10 00:49:45;;;;;;;7.40;1.63;;;13.80;99.90;;;;;;5072097;28;20127;-48
2022/07/10 00:52:14;;;;;;;9.68;1.38;;;13.80;99.90;;;;;;5073350;28;20032;-48
2022/07/10 00:54:43;;;;;;;7.55;1.17;;;13.80;99.90;;;;;;5072924;28;20033;-48
2022/07/10 00:57:09;;;;;;;5.80;1.08;;;13.70;99.90;;;;;;5056199;28;20896;-49
2022/07/10 00:59:36;;;;;;;7.47;1.50;;;13.80;99.90;;;;;;5073395;28;20042;-48
2022/07/10 01:02:03;;;;;;;6.30;1.48;;;13.70;99.90;;;;;;5072944;28;20040;-50
2022/07/10 01:04:30;;;;;;;5.97;1.40;;;13.60;99.90;;;;;;5055042;28;20106;-49
2022/07/10 01:06:55;;;;;;;5.47;1.50;;;13.70;99.90;;;;;;5073061;28;20106;-49
2022/07/10 01:09:21;;;;;;;8.35;1.60;;;13.60;99.90;;;;;;5073218;28;20037;-50
2022/07/10 01:11:47;;;;;;;7.22;1.25;;;13.60;99.90;;;;;;5073150;28;20033;-50
2022/07/10 01:14:14;;;;;;;5.03;1.25;;;13.50;99.90;;;;;;5055853;28;20047;-49
2022/07/10 01:16:40;;;;;;;6.20;1.50;;;13.40;99.90;;;;;;5073053;28;20032;-48
2022/07/10 01:19:06;;;;;;;9.27;1.70;;;13.40;99.90;;;;;;5053914;28;20623;-49
2022/07/10 01:21:34;;;;;;;7.43;1.45;;;13.40;99.90;;;;;;5072694;28;20043;-50
2022/07/10 01:24:06;;;;;;;8.77;1.20;;;13.30;99.90;;;;;;5072337;28;20039;-50
2022/07/10 01:26:31;;;;;;;10.55;1.33;;;13.20;99.90;;;;;;5071271;28;20048;-50
2022/07/10 01:29:01;;;;;;;4.28;1.17;;;13.30;99.90;;;;;;5072732;28;20047;-51
2022/07/10 01:31:27;;;;;;;5.68;1.40;;;13.30;99.90;;;;;;5072747;28;20036;-50
2022/07/10 01:33:54;;;;;;;6.30;1.70;;;13.20;99.90;;;;;;5073072;28;20040;-49
2022/07/10 01:36:21;;;;;;;6.82;1.48;;;13.20;99.90;;;;;;5072812;28;20040;-48
2022/07/10 01:38:47;;;;;;;5.97;1.10;;;13.20;99.90;;;;;;5072714;28;20506;-51
2022/07/10 01:41:13;;;;;;;5.45;1.45;;;13.10;99.90;;;;;;5072619;28;20033;-50
2022/07/10 01:43:42;;;;;;;5.20;1.20;;;13.10;99.90;;;;;;5038897;28;20051;-51
2022/07/10 01:46:10;;;;;;;6.20;1.45;;;13.00;99.90;;;;;;5072200;28;20048;-50
2022/07/10 01:48:37;;;;;;;4.65;1.30;;;13.10;99.90;;;;;;5072582;28;20498;-49
2022/07/10 01:51:04;;;;;;;4.97;1.20;;;13.00;99.90;;;;;;5072270;28;20376;-50
2022/07/10 01:53:29;;;;;;;6.10;1.35;;;12.90;99.90;;;;;;5071915;28;20174;-50
2022/07/10 01:55:55;;;;;;;7.05;1.60;;;13.00;99.90;;;;;;5072388;28;20119;-47
2022/07/10 01:58:21;;;;;;;3.85;1.10;;;12.90;99.90;;;;;;5072154;28;20048;-49
2022/07/10 02:00:47;;;;;;;10.18;1.50;;;13.00;99.90;;;;;;5071929;28;20043;-51
2022/07/10 02:05:57;;;;;;;;;;;12.90;99.90;;;;;;5072761;28;20047;-52
2022/07/10 02:08:23;;;;;;;6.22;1.30;;;12.90;99.90;;;;;;5072041;28;19916;-49
2022/07/10 02:10:49;;;;;;;6.53;1.17;;;13.00;99.90;;;;;;5054600;28;20036;-46
2022/07/10 02:13:17;;;;;;;8.30;1.38;;;12.90;99.90;;;;;;5071986;28;20029;-50
2022/07/10 02:15:43;;;;;;;5.60;1.30;;;12.80;99.90;;;;;;5071572;28;20043;-46
2022/07/10 02:18:09;;;;;;;9.25;1.70;;;12.80;99.90;;;;;;5071338;28;20098;-50
2022/07/10 02:20:36;;;;;;;6.10;1.50;;;12.80;99.90;;;;;;5072137;28;20037;-51
2022/07/10 02:23:02;;;;;;;8.55;1.70;;;12.80;99.90;;;;;;5071735;28;20048;-51
2022/07/10 02:25:28;;;;;;;6.57;1.83;;;12.80;99.90;;;;;;5071198;28;20072;-46
2022/07/10 02:27:53;;;;;;;6.57;1.60;;;12.70;99.90;;;;;;5053548;28;20494;-47
2022/07/10 02:30:19;;;;;;;9.77;1.58;;;12.70;99.90;;;;;;5071368;28;20115;-49
2022/07/10 02:32:45;;;;;;;7.63;1.63;;;12.60;99.90;;;;;;5071142;28;20056;-50
2022/07/10 02:35:11;;;;;;;4.68;1.30;;;12.60;99.90;;;;;;5071908;28;20086;-47
2022/07/10 02:37:36;;;;;;;5.32;1.40;;;12.60;99.90;;;;;;5071101;28;20126;-50
2022/07/10 02:40:03;;;;;;;5.75;1.50;;;12.50;99.90;;;;;;5071291;28;20075;-51
2022/07/10 02:42:29;;;;;;;6.38;1.30;;;12.60;99.90;;;;;;5070873;28;20048;-48
2022/07/10 02:44:54;;;;;;;6.38;1.58;;;12.50;99.90;;;;;;5071463;28;20479;-48
2022/07/10 02:47:20;;;;;;;8.20;1.90;;;12.50;99.90;;;;;;5071215;28;20075;-51
2022/07/10 02:49:46;;;;;;;9.30;1.70;;;12.60;99.90;;;;;;5071154;28;20044;-51
2022/07/10 02:52:11;;;;;;;10.20;1.65;;;12.50;99.90;;;;;;5071056;28;20037;-48
2022/07/10 02:54:37;;;;;;;6.50;1.50;;;12.50;99.90;;;;;;5071413;28;20046;-49
2022/07/10 02:57:04;;;;;;;9.15;1.80;;;12.50;99.90;;;;;;5073641;28;20044;-49
2022/07/10 02:59:29;;;;;;;7.60;2.15;;;12.40;99.90;;;;;;5075077;28;20040;-50
2022/07/10 03:01:55;;;;;;;6.47;1.30;;;12.40;99.90;;;;;;5054812;28;20051;-49
2022/07/10 03:04:20;;;;;;;6.75;1.40;;;12.40;99.90;;;;;;5071056;28;20093;-49
2022/07/10 03:06:46;;;;;;;8.63;1.65;;;12.40;99.90;;;;;;5071127;28;20037;-49
2022/07/10 03:09:12;;;;;;;9.38;1.85;;;12.40;99.90;;;;;;5070894;28;20068;-47
2022/07/10 03:11:37;;;;;;;6.20;1.50;;;12.40;99.90;;;;;;5070925;28;20033;-48
2022/07/10 03:14:03;;;;;;;5.55;1.52;;;12.40;99.90;;;;;;5070549;28;20059;-48
2022/07/10 03:16:29;;;;;;;7.35;1.95;;;12.50;99.90;;;;;;5070883;28;20040;-51
2022/07/10 03:18:55;;;;;;;7.75;1.50;;;12.50;99.90;;;;;;5070909;28;20562;-51
2022/07/10 03:21:20;;;;;;;10.02;1.95;;;12.70;99.90;;;;;;5052723;28;20032;-50
2022/07/10 03:23:46;;;;;;;7.55;1.80;;;12.70;99.90;;;;;;5070393;28;20040;-50
2022/07/10 03:26:12;;;;;;;6.13;1.60;;;12.80;99.90;;;;;;5070324;28;20095;-48
2022/07/10 03:28:37;;;;;;;6.28;1.58;;;12.80;99.90;;;;;;5070746;28;20172;-49
2022/07/10 03:31:03;;;;;;;8.82;1.75;;;12.90;99.90;;;;;;5070317;28;20499;-50
2022/07/10 03:33:29;;;;;;;6.97;1.75;;;12.90;99.90;;;;;;5052417;28;20033;-50
2022/07/10 03:35:54;;;;;;;7.28;1.55;;;13.00;99.90;;;;;;5053087;28;20048;-49
2022/07/10 03:38:20;;;;;;;7.32;1.35;;;13.00;99.90;;;;;;5070811;28;20036;-49
2022/07/10 03:40:47;;;;;;;7.03;1.30;;;13.10;99.90;;;;;;5070453;28;20041;-50
2022/07/10 03:43:14;;;;;;;8.55;1.48;;;13.20;99.90;;;;;;5068215;28;20062;-48
2022/07/10 03:45:40;;;;;;;8.15;1.55;;;13.20;99.90;;;;;;5069323;28;20041;-48
2022/07/10 03:48:06;;;;;;;6.00;1.42;;;13.20;99.90;;;;;;5070374;28;20857;-48
2022/07/10 03:50:33;;;;;;;9.98;1.35;;;13.30;99.90;;;;;;5071923;28;20037;-47
2022/07/10 03:52:59;;;;;;;8.27;1.30;;;13.40;99.90;;;;;;5056004;28;20071;-52
2022/07/10 03:55:26;;;;;;;8.95;1.52;;;13.40;99.90;;;;;;5073435;28;20036;-47
2022/07/10 03:58:02;;;;;;;5.35;1.55;;;13.40;99.90;;;;;;5074503;28;20048;-48
2022/07/10 04:00:28;;;;;;;6.30;1.30;;;13.40;99.90;;;;;;5074342;28;20045;-49
2022/07/10 04:02:58;;;;;;;6.63;1.33;;;13.40;99.90;;;;;;5074329;28;20068;-49
2022/07/10 04:05:25;;;;;;;6.45;1.38;;;13.40;99.90;;;;;;5074512;28;20036;-49
2022/07/10 04:07:51;;;;;;;9.82;1.80;;;13.40;99.90;;;;;;5073750;28;20399;-49
2022/07/10 04:10:16;;;;;;;6.43;1.23;;;13.50;99.90;;;;;;5056389;28;20035;-48
2022/07/10 04:12:43;;;;;;;10.77;1.90;;;13.60;99.90;;;;;;5074293;28;20029;-47
2022/07/10 04:15:09;;;;;;;7.30;1.65;;;13.60;99.90;;;;;;5074424;28;20382;-49
2022/07/10 04:17:34;;;;;;;3.53;0.95;;;13.70;99.90;;;;;;5073882;28;20128;-47
2022/07/10 04:20:01;;;;;;;7.68;1.38;;;13.70;99.90;;;;;;5056080;28;20056;-50
2022/07/10 04:22:27;;;;;;;4.90;1.25;;;13.80;99.90;;;;;;5074137;28;20075;-50
2022/07/10 04:24:54;;;;;;;5.63;1.42;;;13.80;99.90;;;;;;5073838;28;20184;-49
2022/07/10 04:27:19;;;;;;;7.57;1.35;;;14.00;99.90;;;;;;5056636;28;20044;-47
2022/07/10 04:29:45;;;;;;;7.68;1.25;;;14.00;99.90;;;;;;5073783;28;20093;-51
2022/07/10 04:32:11;;;;;;;7.90;1.27;;;14.00;99.90;;;;;;5073536;28;20040;-48
2022/07/10 04:34:37;;;;;;;6.47;1.20;;;14.10;99.90;;;;;;5073333;28;20040;-52
2022/07/10 04:37:03;;;;;;;8.05;1.48;;;14.10;99.90;;;;;;5073573;28;20307;-50
2022/07/10 04:39:29;;;;;;;6.88;1.38;;;14.10;99.90;;;;;;5055979;28;20105;-49
2022/07/10 04:41:54;;;;;;;6.85;1.42;;;14.10;99.90;;;;;;5073684;28;20047;-48
2022/07/10 04:44:20;;;;;;;7.82;1.75;;;14.10;99.90;;;;;;5073715;28;20102;-50
2022/07/10 04:46:46;;;;;;;7.95;1.35;;;14.20;99.90;;;;;;5073634;28;20132;-51
2022/07/10 04:49:12;;;;;;;5.65;1.25;;;14.10;99.90;;;;;;5073573;28;20112;-50
2022/07/10 04:51:38;;;;;;;6.70;1.63;;;14.10;99.90;;;;;;5055473;28;20157;-52
2022/07/10 04:54:03;;;;;;;8.77;2.30;;;14.20;99.90;;;;;;5072955;28;20512;-48
2022/07/10 04:56:29;;;;;;;7.38;1.48;;;14.20;99.90;;;;;;5073156;28;20490;-50
2022/07/10 04:58:55;;;;;;;7.20;1.65;;;14.20;99.90;;;;;;5073410;28;20091;-51
2022/07/10 05:01:20;;;;;;;6.93;1.60;;;14.20;99.90;;;;;;5072892;28;20048;-50
2022/07/10 05:03:47;;;;;;;5.65;1.60;;;14.20;99.90;;;;;;5073328;28;20134;-48
2022/07/10 05:06:13;;;;;;;5.25;1.35;;;14.20;99.90;;;;;;5054695;28;20101;-49
2022/07/10 05:08:39;;;;;;;7.35;1.60;;;14.30;99.90;;;;;;5055350;28;20398;-48
2022/07/10 05:11:05;;;;;;;6.43;1.73;;;14.30;99.90;;;;;;5073527;28;20036;-48
2022/07/10 05:13:31;;;;;;;7.55;1.92;;;14.40;99.90;;;;;;5073204;28;20043;-48
2022/07/10 05:15:56;;;;;;;8.13;1.90;;;14.40;99.90;;;;;;5073208;28;20115;-48
2022/07/10 05:18:22;;;;;;;12.25;2.58;;;14.50;99.90;;;;;;5072949;28;20705;-51
2022/07/10 05:20:49;;;;;;;8.80;2.25;;;14.50;99.90;;;;;;5072892;28;20044;-49
2022/07/10 05:23:15;;;;;;;6.80;1.85;;;14.50;99.90;;;;;;5072452;28;20037;-51
2022/07/10 05:25:41;;;;;;;9.15;2.05;;;14.60;99.90;;;;;;5072559;28;20491;-48
2022/07/10 05:28:07;;;;;;;11.23;1.75;;;14.70;99.90;;;;;;5072752;28;20049;-50
2022/07/10 05:30:33;;;;;;;8.20;1.88;;;14.80;99.90;;;;;;5072972;28;20590;-49
2022/07/10 05:32:59;;;;;;;7.93;2.05;;;14.80;99.90;;;;;;5073094;28;20039;-49
2022/07/10 05:35:26;;;;;;;5.80;1.70;;;14.80;99.90;;;;;;5070440;28;20047;-50
2022/07/10 05:37:52;;;;;;;7.28;1.45;;;14.80;99.90;;;;;;5072518;28;20054;-50
2022/07/10 05:40:18;;;;;;;7.53;1.70;;;14.90;99.90;;;;;;5072353;28;20430;-49
2022/07/10 05:42:44;;;;;;;7.90;1.90;;;15.00;99.90;;;;;;5072574;28;20476;-49
2022/07/10 05:45:11;;;;;;;6.40;1.83;;;15.00;99.90;;;;;;5072620;28;20055;-48
2022/07/10 05:47:37;;;;;;;9.55;1.63;;;15.10;99.90;;;;;;5072242;28;20040;-49
2022/07/10 05:50:04;;;;;;;7.95;2.10;;;15.10;99.90;;;;;;5071926;28;20052;-48
2022/07/10 05:52:29;;;;;;;5.45;1.60;;;15.00;99.90;;;;;;5071962;28;20041;-49
2022/07/10 05:54:57;;;;;;;7.20;2.20;;;15.10;99.90;;;;;;5072005;28;20039;-47
2022/07/10 05:57:23;;;;;;;8.45;1.85;;;15.00;99.90;;;;;;5071981;28;20462;-47
2022/07/10 05:59:49;;;;;;;6.85;1.88;;;15.00;99.90;;;;;;5071816;28;20049;-49
2022/07/10 06:02:16;;;;;;;7.22;1.83;;;15.20;99.90;;;;;;5071724;28;20051;-46
2022/07/10 06:04:42;;;;;;;7.15;1.70;;;15.10;99.90;;;;;;5072157;28;20445;-50
2022/07/10 06:07:08;;;;;;;7.53;1.83;;;15.10;99.90;;;;;;5072015;28;20037;-50
2022/07/10 06:09:34;;;;;;;8.40;1.63;;;15.20;99.90;;;;;;5071660;28;20086;-50
2022/07/10 06:12:00;;;;;;;8.95;1.77;;;15.20;99.90;;;;;;5071498;28;20033;-51
2022/07/10 06:14:25;;;;;;;6.13;1.73;;;15.30;99.90;;;;;;5053482;28;20044;-48
2022/07/10 06:16:51;;;;;;;7.43;1.60;;;15.20;99.90;;;;;;5071781;28;20081;-49
2022/07/10 06:19:18;;;;;;;5.82;1.75;;;15.30;99.90;;;;;;5071796;28;20040;-49
2022/07/10 06:21:44;;;;;;;6.78;1.70;;;15.20;99.90;;;;;;5053647;28;20434;-51
2022/07/10 06:24:09;;;;;;;9.07;1.80;;;15.30;99.90;;;;;;5071264;28;20040;-49
2022/07/10 06:26:35;;;;;;;7.63;1.60;;;15.30;99.90;;;;;;5071550;28;20076;-48
2022/07/10 06:29:01;;;;;;;8.60;1.73;;;15.20;99.90;;;;;;5053656;28;20047;-47
2022/07/10 06:31:26;;;;;;;5.10;1.60;;;15.20;99.90;;;;;;5071449;28;20036;-50
2022/07/10 06:33:52;;;;;;;6.32;1.90;;;15.20;99.90;;;;;;5070011;28;20039;-48
2022/07/10 06:36:17;;;;;;;4.97;1.70;;;15.00;99.90;;;;;;5053246;28;20040;-47
2022/07/10 06:38:43;;;;;;;7.25;1.98;;;15.10;99.90;;;;;;5053432;28;20102;-48
2022/07/10 06:41:09;;;;;;;10.05;2.05;;;15.10;99.90;;;;;;5071275;28;20036;-47
2022/07/10 06:43:35;;;;;;;8.13;2.00;;;15.20;99.90;;;;;;5071300;28;20035;-50
2022/07/10 06:46:00;;;;;;;7.18;1.88;;;15.20;99.90;;;;;;5070960;28;20090;-48
2022/07/10 06:48:27;;;;;;;7.68;2.00;;;15.30;99.90;;;;;;5071056;28;20032;-51
2022/07/10 06:50:53;;;;;;;8.50;1.92;;;15.40;99.90;;;;;;5071147;28;20040;-48
2022/07/10 06:53:23;;;;;;;7.45;1.85;;;15.40;99.90;;;;;;5071088;28;20059;-48
2022/07/10 06:55:50;;;;;;;7.18;1.77;;;15.50;99.90;;;;;;5070338;28;20032;-48
2022/07/10 06:58:16;;;;;;;9.90;1.63;;;15.50;99.90;;;;;;5070838;28;20408;-48
2022/07/10 07:00:42;;;;;;;5.25;1.40;;;15.40;99.90;;;;;;5070749;28;20053;-47
2022/07/10 07:03:08;;;;;;;5.20;1.60;;;15.50;99.90;;;;;;5051068;28;20403;-49
2022/07/10 07:05:33;;;;;;;9.13;2.33;;;15.40;99.90;;;;;;5068213;28;20031;-50
2022/07/10 07:07:59;;;;;;;7.30;2.00;;;15.50;99.90;;;;;;5069401;28;20094;-51
2022/07/10 07:10:25;;;;;;;5.10;1.60;;;15.40;99.90;;;;;;5067425;28;20033;-50
2022/07/10 07:12:50;;;;;;;7.15;1.73;;;15.60;99.90;;;;;;5070418;28;20032;-50
2022/07/10 07:15:16;;;;;;;10.07;1.88;;;15.60;99.90;;;;;;5061938;28;20068;-50
2022/07/10 07:17:56;;;;;;;8.00;1.98;;;15.70;99.90;;;;;;5063553;28;20528;-52
2022/07/10 07:23:10;;;;;;;8.68;1.88;;;15.40;99.90;;;;;;5063393;28;20032;-50
2022/07/10 07:25:38;;;;;;;6.03;1.90;;;15.20;99.90;;;;;;5063547;28;20064;-49
2022/07/10 07:28:03;;;;;;;7.68;1.60;;;15.20;99.90;;;;;;5063605;28;20158;-52
2022/07/10 07:30:29;;;;;;;6.78;1.67;;;15.20;99.90;;;;;;5063865;28;20469;-52
2022/07/10 07:32:55;;;;;;;3.95;1.20;;;15.20;99.90;;;;;;5063891;28;20119;-50
2022/07/10 07:35:21;;;;;;;3.92;1.23;;;15.10;99.90;;;;;;5063430;28;20526;-49
2022/07/10 07:37:50;;;;;;;4.68;1.30;;;15.00;99.90;;;;;;5063937;28;20044;-49
2022/07/10 07:40:24;;;;;;;3.05;1.20;;;15.10;99.90;;;;;;5062812;28;20048;-50
2022/07/10 07:42:53;;;;;;;4.38;1.27;;;15.20;99.90;;;;;;5046402;28;20041;-54
2022/07/10 07:45:19;;;;;;;3.65;1.40;;;15.30;99.90;;;;;;5062627;28;20556;-50
2022/07/10 07:47:54;;;;;;;6.22;1.60;;;15.10;99.90;;;;;;5063607;28;20049;-50
2022/07/10 07:50:26;;;;;;;7.47;1.90;;;15.10;99.90;;;;;;5046153;28;20024;-52
2022/07/10 07:52:52;;;;;;;5.75;1.75;;;15.20;99.90;;;;;;5063615;28;20102;-46
2022/07/10 07:55:20;;;;;;;5.93;1.92;;;15.10;99.90;;;;;;5062852;28;20793;-51
2022/07/10 07:57:46;;;;;;;4.72;1.40;;;15.20;99.90;;;;;;5046694;28;20060;-52
2022/07/10 08:00:14;;;;;;;4.72;1.33;;;15.00;99.90;;;;;;5063499;28;20075;-49
2022/07/10 08:02:41;;;;;;;4.00;1.30;;;15.20;99.90;;;;;;5062985;28;20041;-51
2022/07/10 08:05:07;;;;;;;4.85;1.23;;;15.30;99.90;;;;;;5063783;28;20468;-49
2022/07/10 08:07:37;;;;;;;4.90;1.48;;;15.30;99.90;;;;;;5063204;28;20084;-51
2022/07/10 08:10:05;;;;;;;3.95;1.23;;;15.40;99.90;;;;;;5045290;28;20093;-51
2022/07/10 08:12:30;;;;;;;4.18;1.27;;;15.30;99.90;;;;;;5063413;28;20047;-50
2022/07/10 08:14:57;;;;;;;4.53;1.60;;;15.50;99.90;;;;;;5062718;28;20036;-49
2022/07/10 08:17:23;;;;;;;4.85;1.52;;;15.50;99.90;;;;;;5063325;28;20159;-51
2022/07/10 08:19:49;;;;;;;6.68;1.42;;;15.70;99.90;;;;;;5062599;28;20059;-52
2022/07/10 08:22:15;;;;;;;7.93;1.40;;;15.60;99.90;;;;;;5047427;28;20420;-53
2022/07/10 08:24:41;;;;;;;5.53;1.90;;;15.70;99.90;;;;;;5060512;28;20036;-51
2022/07/10 08:27:07;;;;;;;3.65;1.88;;;15.90;99.90;;;;;;5045018;28;20033;-51
2022/07/10 08:29:33;;;;;;;4.30;1.70;;;15.80;99.90;;;;;;5063635;28;20496;-50
2022/07/10 08:31:59;;;;;;;5.60;1.63;;;15.90;99.90;;;;;;5062536;28;20115;-52
2022/07/10 08:34:26;;;;;;;9.15;1.90;;;15.80;99.90;;;;;;5061179;28;20032;-49
2022/07/10 08:36:51;;;;;;;6.43;1.90;;;16.00;99.90;;;;;;5068149;28;20456;-51
2022/07/10 08:39:20;;;;;;;5.63;1.80;;;15.90;99.90;;;;;;5047658;28;20064;-49
2022/07/10 08:41:50;;;;;;;6.85;2.00;;;16.20;99.90;;;;;;5064773;28;20553;-53
2022/07/10 08:44:19;;;;;;;4.70;2.00;;;16.10;99.90;;;;;;5066106;28;20199;-52
2022/07/10 08:46:45;;;;;;;3.90;1.27;;;16.10;99.90;;;;;;5063984;28;20392;-54
2022/07/10 08:49:13;;;;;;;6.03;1.50;;;16.10;99.90;;;;;;5063341;28;20127;-54
2022/07/10 08:51:55;;;;;;;6.30;1.80;;;16.10;99.90;;;;;;5063818;28;20064;-49
2022/07/10 08:54:22;;;;;;;5.47;1.52;;;16.10;99.90;;;;;;5063407;28;20040;-49
2022/07/10 08:56:48;;;;;;;6.15;1.65;;;16.00;99.90;;;;;;5063844;28;20060;-52
2022/07/10 08:59:14;;;;;;;5.13;1.58;;;16.00;99.90;;;;;;5068319;28;20074;-50
2022/07/10 09:01:40;;;;;;;6.53;1.90;;;16.10;99.90;;;;;;5067475;28;20566;-48
2022/07/10 09:04:06;;;;;;;5.93;1.77;;;16.00;99.90;;;;;;5066863;28;20082;-49
2022/07/10 09:06:32;;;;;;;5.45;1.50;;;16.00;99.90;;;;;;5049743;28;20056;-50
2022/07/10 09:09:08;;;;;;;7.88;1.48;;;15.80;99.90;;;;;;5068574;28;20039;-49
2022/07/10 09:11:34;;;;;;;9.82;1.58;;;15.90;99.90;;;;;;5062989;28;20040;-51
2022/07/10 09:14:07;;;;;;;5.07;1.45;;;16.00;99.90;;;;;;5061707;28;20384;-50
2022/07/10 09:16:38;;;;;;;4.45;1.45;;;15.90;99.90;;;;;;5061393;28;20044;-51
2022/07/10 09:19:19;;;;;;;8.98;1.98;;;16.00;99.90;;;;;;5062482;28;20488;-53
2022/07/10 09:21:50;;;;;;;5.40;1.60;;;15.90;99.90;;;;;;5059419;28;20044;-52
2022/07/10 09:24:19;;;;;;;6.78;1.50;;;16.10;99.90;;;;;;5061006;28;20098;-52
2022/07/10 09:27:03;;;;;;;5.65;1.35;;;16.30;99.90;;;;;;5060917;28;20052;-48
2022/07/10 09:29:29;;;;;;;5.90;1.97;;;16.40;99.90;;;;;;5062524;28;20036;-49
2022/07/10 09:31:58;;;;;;;6.13;1.20;;;16.80;99.90;;;;;;5061836;28;20413;-51
2022/07/10 09:34:36;;;;;;;3.80;1.30;;;16.90;99.90;;;;;;5057263;28;21768;-48
2022/07/10 09:37:28;;;;;;;4.97;1.15;;;17.20;99.90;;;;;;5061774;28;20033;-53
2022/07/10 09:40:03;;;;;;;8.40;1.67;;;17.50;99.90;;;;;;5062071;28;20319;-52
2022/07/10 09:42:36;;;;;;;3.03;1.00;;;17.40;99.90;;;;;;5061241;28;20475;-52
2022/07/10 09:45:17;;;;;;;3.42;1.13;;;17.50;99.90;;;;;;5049680;28;20099;-52
2022/07/10 09:47:45;;;;;;;5.82;1.52;;;17.40;99.90;;;;;;5059699;28;20047;-51
2022/07/10 09:50:29;;;;;;;5.57;1.08;;;17.40;99.90;;;;;;5048137;28;20127;-49
2022/07/10 09:52:59;;;;;;;5.17;1.20;;;17.30;99.90;;;;;;5060427;28;20375;-50
2022/07/10 09:55:29;;;;;;;5.03;1.10;;;17.10;99.90;;;;;;5060276;28;20044;-47
2022/07/10 09:57:59;;;;;;;5.68;1.50;;;17.00;99.90;;;;;;5060885;28;20061;-51
2022/07/10 10:00:30;;;;;;;4.38;1.23;;;17.00;99.90;;;;;;5061619;28;20040;-49
2022/07/10 10:03:07;;;;;;;8.00;1.50;;;17.10;99.90;;;;;;5062003;28;20051;-50
2022/07/10 10:05:39;;;;;;;7.03;1.40;;;17.00;99.90;;;;;;5063016;28;20101;-51
2022/07/10 10:08:12;;;;;;;5.90;1.50;;;17.20;99.90;;;;;;5046241;28;20443;-50
2022/07/10 10:10:45;;;;;;;8.48;1.58;;;17.20;99.90;;;;;;5063782;28;20036;-51
2022/07/10 10:13:12;;;;;;;6.50;1.67;;;17.10;99.90;;;;;;5064259;28;20500;-52
2022/07/10 10:15:38;;;;;;;5.28;1.50;;;17.20;99.90;;;;;;5046919;28;20058;-50
2022/07/10 10:18:05;;;;;;;4.90;1.75;;;17.10;99.90;;;;;;5061921;28;20064;-52
2022/07/10 10:20:41;;;;;;;5.88;1.50;;;17.10;99.90;;;;;;5057800;28;20116;-49
2022/07/10 10:23:20;;;;;;;6.57;1.27;;;17.00;99.90;;;;;;5047639;28;20497;-51
2022/07/10 10:25:47;;;;;;;4.40;1.48;;;17.10;99.90;;;;;;5063021;28;20551;-48
2022/07/10 10:28:15;;;;;;;4.43;1.30;;;17.30;99.90;;;;;;5064137;28;20041;-52
2022/07/10 10:30:45;;;;;;;8.63;1.80;;;17.40;99.90;;;;;;5063346;28;20060;-51
2022/07/10 10:33:42;;;;;;;3.75;1.25;;;17.60;99.90;;;;;;5060635;28;20040;-47
2022/07/10 10:36:14;;;;;;;7.30;1.20;;;17.80;99.90;;;;;;5059737;28;20148;-49
2022/07/10 10:38:55;;;;;;;4.82;1.40;;;18.20;99.90;;;;;;5046183;28;20494;-51
2022/07/10 10:41:38;;;;;;;5.43;1.60;;;18.60;99.90;;;;;;5060853;28;20130;-52
2022/07/10 10:44:11;;;;;;;6.80;1.50;;;19.00;99.90;;;;;;5060372;28;20080;-49
2022/07/10 10:46:56;;;;;;;3.17;1.00;;;19.10;99.90;;;;;;5058854;28;20095;-51
2022/07/10 10:49:24;;;;;;;4.75;1.42;;;18.80;99.90;;;;;;5058720;28;20442;-52
2022/07/10 10:52:00;;;;;;;4.40;1.20;;;18.40;99.90;;;;;;5059821;28;20438;-50
2022/07/10 10:54:28;;;;;;;5.68;1.30;;;18.20;99.90;;;;;;5058500;28;20039;-49
2022/07/10 10:57:13;;;;;;;6.35;1.40;;;18.20;99.90;;;;;;5057195;28;20135;-49
2022/07/10 10:59:49;;;;;;;4.63;1.13;;;18.30;99.90;;;;;;5051639;28;20036;-50
2022/07/10 11:02:26;;;;;;;3.70;1.48;;;18.70;99.90;;;;;;5055546;28;20102;-49
2022/07/10 11:05:12;;;;;;;6.07;1.23;;;18.90;99.90;;;;;;5057432;28;20032;-51
2022/07/10 11:07:58;;;;;;;7.78;1.55;;;18.80;99.90;;;;;;5015777;28;20446;-52
2022/07/10 11:10:35;;;;;;;3.53;1.00;;;18.70;99.90;;;;;;5057899;28;20067;-48
2022/07/10 11:13:13;;;;;;;4.47;1.02;;;19.00;99.90;;;;;;5056704;28;20203;-50
2022/07/10 11:15:43;;;;;;;3.95;1.00;;;19.10;99.90;;;;;;5056635;28;20046;-50
2022/07/10 11:18:12;;;;;;;5.63;1.40;;;19.00;99.90;;;;;;5056610;28;20037;-52
2022/07/10 11:20:41;;;;;;;4.50;1.15;;;18.90;99.90;;;;;;5058386;28;20064;-52
2022/07/10 11:23:36;;;;;;;8.57;1.40;;;18.80;99.90;;;;;;5060094;28;20077;-51
2022/07/10 11:26:12;;;;;;;4.40;1.10;;;18.50;99.90;;;;;;5060409;28;20044;-49
2022/07/10 11:28:47;;;;;;;3.33;0.98;;;18.40;99.90;;;;;;5057437;28;20045;-53
2022/07/10 11:31:13;;;;;;;4.40;1.00;;;18.50;99.90;;;;;;5060866;28;20207;-51
2022/07/10 11:33:44;;;;;;;5.47;1.45;;;18.50;99.90;;;;;;5044797;28;20045;-49
2022/07/10 11:36:15;;;;;;;6.82;1.73;;;18.10;99.90;;;;;;5060689;28;20490;-51
2022/07/10 11:38:42;;;;;;;7.45;1.30;;;17.90;99.90;;;;;;5045484;28;20133;-47
2022/07/10 11:41:16;;;;;;;5.55;1.40;;;17.70;99.90;;;;;;5061026;28;20151;-48
2022/07/10 11:44:03;;;;;;;7.00;1.40;;;17.90;99.90;;;;;;5058588;28;20051;-50
2022/07/10 11:46:34;;;;;;;4.40;1.20;;;18.00;99.90;;;;;;5059316;28;20041;-48
2022/07/10 11:49:04;;;;;;;4.78;1.20;;;18.00;99.90;;;;;;5059688;28;20097;-50
2022/07/10 11:51:44;;;;;;;5.80;1.10;;;18.20;99.90;;;;;;5047077;28;20388;-50
2022/07/10 11:54:17;;;;;;;5.10;1.40;;;18.60;99.90;;;;;;5060181;28;20040;-50
2022/07/10 11:56:47;;;;;;;3.83;1.00;;;18.90;99.90;;;;;;5059292;28;20143;-47
2022/07/10 11:59:15;;;;;;;3.25;1.10;;;18.80;99.90;;;;;;5062582;28;20106;-52
2022/07/10 12:01:49;;;;;;;4.75;1.10;;;19.00;99.90;;;;;;5060739;28;20029;-52
2022/07/10 12:04:16;;;;;;;;;;;19.10;99.90;;;;;;5062344;28;20115;-52
2022/07/10 12:06:46;;;;;;;5.10;1.10;;;19.10;99.90;;;;;;5061567;28;19967;-51
2022/07/10 12:09:14;;;;;;;5.70;1.20;;;19.00;99.90;;;;;;5059472;28;20028;-53
2022/07/10 12:11:42;;;;;;;4.63;1.10;;;18.90;99.90;;;;;;5060729;28;20090;-50
2022/07/10 12:14:16;;;;;;;5.50;1.55;;;18.90;99.90;;;;;;5064592;28;20062;-52
2022/07/10 12:16:44;;;;;;;5.07;1.30;;;18.80;99.90;;;;;;5065476;28;20052;-50
2022/07/10 12:19:12;;;;;;;6.00;1.60;;;18.60;99.90;;;;;;5065472;28;20041;-51
2022/07/10 12:21:40;;;;;;;6.03;1.35;;;18.60;99.90;;;;;;5048927;28;20040;-50
2022/07/10 12:24:07;;;;;;;4.50;1.20;;;18.70;99.90;;;;;;5081669;28;20040;-53
2022/07/10 12:26:38;;;;;;;4.13;1.10;;;18.60;99.90;;;;;;5064919;28;20076;-50
2022/07/10 12:29:04;;;;;;;4.32;0.95;;;18.70;99.90;;;;;;5048047;28;20836;-50
2022/07/10 12:31:32;;;;;;;5.72;1.13;;;18.90;99.90;;;;;;5065497;28;20057;-49
2022/07/10 12:34:04;;;;;;;7.10;2.20;;;18.90;99.90;;;;;;5065879;28;20036;-51
2022/07/10 12:36:51;;;;;;;6.07;1.48;;;18.80;99.90;;;;;;5065138;28;20036;-49
2022/07/10 12:39:21;;;;;;;5.15;1.17;;;18.70;99.90;;;;;;5063658;28;20111;-51
2022/07/10 12:42:04;;;;;;;5.72;1.13;;;18.70;99.90;;;;;;5064454;28;20040;-51
2022/07/10 12:44:38;;;;;;;5.53;1.23;;;18.80;99.90;;;;;;5063914;28;20475;-50
2022/07/10 12:47:14;;;;;;;4.97;0.95;;;18.90;99.90;;;;;;5064511;28;20044;-52
2022/07/10 12:50:20;;;;;;;3.58;0.95;;;18.90;99.90;;;;;;5064477;28;20559;-51
2022/07/10 12:52:46;;;;;;;4.03;0.90;;;19.00;99.90;;;;;;5062168;28;20504;-50
2022/07/10 12:55:16;;;;;;;6.32;0.95;;;19.10;99.90;;;;;;5041790;28;20037;-49
2022/07/10 12:57:49;;;;;;;2.95;0.70;;;19.20;99.90;;;;;;5055378;28;20056;-50
2022/07/10 13:00:34;;;;;;;3.50;0.80;;;19.40;99.90;;;;;;5055743;28;20122;-52